createdAt,value
2018-02-24T00:00:41.400Z,2.45
2018-02-24T00:01:41.380Z,2.45
2018-02-24T00:02:41.370Z,2.45
2018-02-24T00:03:41.430Z,2.45
2018-02-24T00:04:41.565Z,2.44
2018-02-24T00:05:41.378Z,2.46
2018-02-24T00:06:41.390Z,2.46
2018-02-24T00:07:41.392Z,2.46
2018-02-24T00:08:41.547Z,2.46
2018-02-24T00:09:41.559Z,2.46
2018-02-24T00:10:41.556Z,2.45
2018-02-24T00:11:41.620Z,2.47
2018-02-24T00:12:41.563Z,2.46
2018-02-24T00:13:41.555Z,2.46
2018-02-24T00:14:41.763Z,2.47
2018-02-24T00:15:41.563Z,2.46
2018-02-24T00:16:41.578Z,2.45
2018-02-24T00:17:41.559Z,2.44
2018-02-24T00:18:41.569Z,2.45
2018-02-24T00:19:41.576Z,2.45
2018-02-24T00:20:41.818Z,2.45
2018-02-24T00:21:41.417Z,2.47
2018-02-24T00:22:41.409Z,2.46
2018-02-24T00:23:41.423Z,2.46
2018-02-24T00:24:41.443Z,2.46
2018-02-24T00:25:41.449Z,2.46
2018-02-24T00:26:41.615Z,2.46
2018-02-24T00:27:41.617Z,2.47
2018-02-24T00:28:41.444Z,2.47
2018-02-24T00:29:41.457Z,2.46
2018-02-24T00:30:41.605Z,2.47
2018-02-24T00:31:41.648Z,2.46
2018-02-24T00:32:41.622Z,2.46
2018-02-24T00:33:41.630Z,2.46
2018-02-24T00:34:41.642Z,2.47
2018-02-24T00:35:41.634Z,2.46
2018-02-24T00:36:41.948Z,2.47
2018-02-24T00:37:41.640Z,2.46
2018-02-24T00:38:41.476Z,2.46
2018-02-24T00:39:41.661Z,2.45
2018-02-24T00:40:41.509Z,2.46
2018-02-24T00:41:41.528Z,2.46
2018-02-24T00:42:41.501Z,2.46
2018-02-24T00:43:41.505Z,2.45
2018-02-24T00:44:41.511Z,2.45
2018-02-24T00:45:41.532Z,2.44
2018-02-24T00:46:41.544Z,2.44
2018-02-24T00:47:41.527Z,2.44
2018-02-24T00:48:41.525Z,2.45
2018-02-24T00:49:41.530Z,2.45
2018-02-24T00:50:41.541Z,2.46
2018-02-24T00:51:41.531Z,2.46
2018-02-24T00:52:41.531Z,2.46
2018-02-24T00:53:41.545Z,2.45
2018-02-24T00:54:41.565Z,2.46
2018-02-24T00:55:41.547Z,2.45
2018-02-24T00:56:41.559Z,2.45
2018-02-24T00:57:41.560Z,2.45
2018-02-24T00:58:41.566Z,2.45
2018-02-24T00:59:41.547Z,2.44
2018-02-24T01:00:41.555Z,2.44
2018-02-24T01:01:41.569Z,2.44
2018-02-24T01:02:41.553Z,2.44
2018-02-24T01:03:41.557Z,2.45
2018-02-24T01:04:41.568Z,2.45
2018-02-24T01:05:41.567Z,2.44
2018-02-24T01:06:41.580Z,2.45
2018-02-24T01:07:41.620Z,2.45
2018-02-24T01:08:41.593Z,2.46
2018-02-24T01:09:41.600Z,2.45
2018-02-24T01:10:41.582Z,2.45
2018-02-24T01:11:41.668Z,2.44
2018-02-24T01:12:41.597Z,2.44
2018-02-24T01:13:41.596Z,2.45
2018-02-24T01:14:41.601Z,2.44
2018-02-24T01:15:41.777Z,2.45
2018-02-24T01:16:41.762Z,2.45
2018-02-24T01:17:41.780Z,2.45
2018-02-24T01:18:41.811Z,2.44
2018-02-24T01:19:41.790Z,2.44
2018-02-24T01:20:41.882Z,2.45
2018-02-24T01:21:41.642Z,2.45
2018-02-24T01:22:41.802Z,2.45
2018-02-24T01:23:41.806Z,2.44
2018-02-24T01:24:41.803Z,2.44
2018-02-24T01:25:41.825Z,2.45
2018-02-24T01:26:41.814Z,2.46
2018-02-24T01:27:41.669Z,2.45
2018-02-24T01:28:41.667Z,2.43
2018-02-24T01:29:41.870Z,2.44
2018-02-24T01:30:41.704Z,2.44
2018-02-24T01:31:41.848Z,2.44
2018-02-24T01:32:41.674Z,2.45
2018-02-24T01:33:41.685Z,2.45
2018-02-24T01:34:41.684Z,2.45
2018-02-24T01:35:42.071Z,2.46
2018-02-24T01:36:41.694Z,2.46
2018-02-24T01:37:41.688Z,2.45
2018-02-24T01:38:41.691Z,2.45
2018-02-24T01:39:41.683Z,2.45
2018-02-24T01:40:41.997Z,2.46
2018-02-24T01:41:41.700Z,2.45
2018-02-24T01:42:41.697Z,2.46
2018-02-24T01:43:41.723Z,2.46
2018-02-24T01:44:41.717Z,2.46
2018-02-24T01:45:41.748Z,2.45
2018-02-24T01:46:41.761Z,2.45
2018-02-24T01:47:41.880Z,2.45
2018-02-24T01:48:41.876Z,2.45
2018-02-24T01:49:41.891Z,2.45
2018-02-24T01:50:41.920Z,2.45
2018-02-24T01:51:41.740Z,2.46
2018-02-24T01:52:41.732Z,2.45
2018-02-24T01:53:41.731Z,2.46
2018-02-24T01:54:41.747Z,2.45
2018-02-24T01:55:41.781Z,2.46
2018-02-24T01:56:41.752Z,2.45
2018-02-24T01:57:41.768Z,2.45
2018-02-24T01:58:41.766Z,2.45
2018-02-24T01:59:41.754Z,2.44
2018-02-24T02:00:41.769Z,2.46
2018-02-24T02:01:42.136Z,2.45
2018-02-24T02:02:41.786Z,2.44
2018-02-24T02:03:41.771Z,2.45
2018-02-24T02:04:41.788Z,2.45
2018-02-24T02:05:41.768Z,2.46
2018-02-24T02:06:41.818Z,2.45
2018-02-24T02:07:41.794Z,2.44
2018-02-24T02:08:41.800Z,2.45
2018-02-24T02:09:41.809Z,2.44
2018-02-24T02:10:41.814Z,2.44
2018-02-24T02:11:41.830Z,2.44
2018-02-24T02:12:41.799Z,2.44
2018-02-24T02:13:41.869Z,2.45
2018-02-24T02:14:41.805Z,2.45
2018-02-24T02:15:41.813Z,2.45
2018-02-24T02:16:41.920Z,2.44
2018-02-24T02:17:41.882Z,2.45
2018-02-24T02:18:41.825Z,2.45
2018-02-24T02:19:41.822Z,2.44
2018-02-24T02:20:41.831Z,2.45
2018-02-24T02:21:41.828Z,2.43
2018-02-24T02:22:41.832Z,2.43
2018-02-24T02:23:41.852Z,2.43
2018-02-24T02:24:41.839Z,2.43
2018-02-24T02:25:41.843Z,2.44
2018-02-24T02:26:42.008Z,2.43
2018-02-24T02:27:42.033Z,2.44
2018-02-24T02:28:42.005Z,2.45
2018-02-24T02:29:41.839Z,2.44
2018-02-24T02:30:42.018Z,2.43
2018-02-24T02:31:42.010Z,2.43
2018-02-24T02:32:42.032Z,2.44
2018-02-24T02:33:42.020Z,2.45
2018-02-24T02:34:42.067Z,2.44
2018-02-24T02:35:42.025Z,2.44
2018-02-24T02:36:41.891Z,2.43
2018-02-24T02:37:41.878Z,2.44
2018-02-24T02:38:42.068Z,2.43
2018-02-24T02:39:42.046Z,2.44
2018-02-24T02:40:41.892Z,2.43
2018-02-24T02:41:41.921Z,2.44
2018-02-24T02:42:41.929Z,2.43
2018-02-24T02:43:41.918Z,2.42
2018-02-24T02:44:41.907Z,2.43
2018-02-24T02:45:41.922Z,2.43
2018-02-24T02:46:41.907Z,2.43
2018-02-24T02:47:41.910Z,2.43
2018-02-24T02:48:41.930Z,2.43
2018-02-24T02:49:41.958Z,2.44
2018-02-24T02:50:41.995Z,2.43
2018-02-24T02:51:41.917Z,2.43
2018-02-24T02:52:41.925Z,2.44
2018-02-24T02:53:41.947Z,2.44
2018-02-24T02:54:41.928Z,2.44
2018-02-24T02:55:41.932Z,2.44
2018-02-24T02:56:42.099Z,2.44
2018-02-24T02:57:42.115Z,2.43
2018-02-24T02:58:42.115Z,2.43
2018-02-24T02:59:41.943Z,2.44
2018-02-24T03:00:42.113Z,2.43
2018-02-24T03:01:42.092Z,2.43
2018-02-24T03:02:41.943Z,2.43
2018-02-24T03:03:41.948Z,2.43
2018-02-24T03:04:41.950Z,2.42
2018-02-24T03:05:41.967Z,2.42
2018-02-24T03:06:41.945Z,2.42
2018-02-24T03:07:41.957Z,2.43
2018-02-24T03:08:41.967Z,2.43
2018-02-24T03:09:41.977Z,2.43
2018-02-24T03:10:41.958Z,2.43
2018-02-24T03:11:41.973Z,2.43
2018-02-24T03:12:41.972Z,2.44
2018-02-24T03:13:42.339Z,2.43
2018-02-24T03:14:41.969Z,2.44
2018-02-24T03:15:41.979Z,2.44
2018-02-24T03:16:41.986Z,2.43
2018-02-24T03:17:41.975Z,2.42
2018-02-24T03:18:42.006Z,2.42
2018-02-24T03:19:41.979Z,2.43
2018-02-24T03:20:41.988Z,2.43
2018-02-24T03:21:42.002Z,2.42
2018-02-24T03:22:42.002Z,2.42
2018-02-24T03:23:41.986Z,2.42
2018-02-24T03:24:41.998Z,2.42
2018-02-24T03:25:41.995Z,2.43
2018-02-24T03:26:42.003Z,2.43
2018-02-24T03:27:42.009Z,2.43
2018-02-24T03:28:42.003Z,2.42
2018-02-24T03:29:42.023Z,2.42
2018-02-24T03:30:42.034Z,2.43
2018-02-24T03:31:42.040Z,2.43
2018-02-24T03:32:42.008Z,2.43
2018-02-24T03:33:42.016Z,2.43
2018-02-24T03:34:42.024Z,2.42
2018-02-24T03:35:42.032Z,2.42
2018-02-24T03:36:42.033Z,2.42
2018-02-24T03:37:42.046Z,2.42
2018-02-24T03:38:42.207Z,2.42
2018-02-24T03:39:42.200Z,2.43
2018-02-24T03:40:42.197Z,2.42
2018-02-24T03:41:42.210Z,2.42
2018-02-24T03:42:42.210Z,2.42
2018-02-24T03:43:42.272Z,2.42
2018-02-24T03:44:42.089Z,2.42
2018-02-24T03:45:42.230Z,2.42
2018-02-24T03:46:42.226Z,2.41
2018-02-24T03:47:42.224Z,2.41
2018-02-24T03:48:42.249Z,2.42
2018-02-24T03:49:42.092Z,2.42
2018-02-24T03:50:42.242Z,2.41
2018-02-24T03:51:42.254Z,2.43
2018-02-24T03:52:42.252Z,2.41
2018-02-24T03:53:42.247Z,2.41
2018-02-24T03:54:42.253Z,2.42
2018-02-24T03:55:42.259Z,2.42
2018-02-24T03:56:42.269Z,2.43
2018-02-24T03:57:42.253Z,2.41
2018-02-24T03:58:42.296Z,2.43
2018-02-24T03:59:42.123Z,2.41
2018-02-24T04:00:42.267Z,2.4
2018-02-24T04:01:42.120Z,2.4
2018-02-24T04:02:42.264Z,2.41
2018-02-24T04:03:42.126Z,2.41
2018-02-24T04:04:42.274Z,2.4
2018-02-24T04:05:42.278Z,2.4
2018-02-24T04:06:42.278Z,2.4
2018-02-24T04:07:42.279Z,2.41
2018-02-24T04:08:42.298Z,2.4
2018-02-24T04:09:42.136Z,2.41
2018-02-24T04:10:42.314Z,2.41
2018-02-24T04:11:42.304Z,2.41
2018-02-24T04:12:42.319Z,2.41
2018-02-24T04:13:42.352Z,2.4
2018-02-24T04:14:42.151Z,2.41
2018-02-24T04:15:42.155Z,2.4
2018-02-24T04:16:42.142Z,2.4
2018-02-24T04:17:42.167Z,2.41
2018-02-24T04:18:42.189Z,2.4
2018-02-24T04:19:42.168Z,2.41
2018-02-24T04:20:42.172Z,2.41
2018-02-24T04:21:42.180Z,2.42
2018-02-24T04:22:42.185Z,2.43
2018-02-24T04:23:42.335Z,2.41
2018-02-24T04:24:42.182Z,2.41
2018-02-24T04:25:42.166Z,2.41
2018-02-24T04:26:42.190Z,2.42
2018-02-24T04:27:42.168Z,2.41
2018-02-24T04:28:42.323Z,2.4
2018-02-24T04:29:42.217Z,2.4
2018-02-24T04:30:42.195Z,2.4
2018-02-24T04:31:42.183Z,2.4
2018-02-24T04:32:42.190Z,2.4
2018-02-24T04:33:42.189Z,2.4
2018-02-24T04:34:42.212Z,2.4
2018-02-24T04:35:42.195Z,2.39
2018-02-24T04:36:42.195Z,2.4
2018-02-24T04:37:42.205Z,2.4
2018-02-24T04:38:42.209Z,2.4
2018-02-24T04:39:42.233Z,2.39
2018-02-24T04:40:42.252Z,2.4
2018-02-24T04:41:42.208Z,2.4
2018-02-24T04:42:42.215Z,2.39
2018-02-24T04:43:42.220Z,2.4
2018-02-24T04:44:42.225Z,2.39
2018-02-24T04:45:42.218Z,2.39
2018-02-24T04:46:42.282Z,2.4
2018-02-24T04:47:42.228Z,2.4
2018-02-24T04:48:42.239Z,2.4
2018-02-24T04:49:42.507Z,2.39
2018-02-24T04:50:42.406Z,2.39
2018-02-24T04:51:42.381Z,2.38
2018-02-24T04:52:42.393Z,2.38
2018-02-24T04:53:42.446Z,2.39
2018-02-24T04:54:42.414Z,2.38
2018-02-24T04:55:42.395Z,2.38
2018-02-24T04:56:42.383Z,2.38
2018-02-24T04:57:42.252Z,2.38
2018-02-24T04:58:42.245Z,2.37
2018-02-24T04:59:42.270Z,2.36
2018-02-24T05:00:42.480Z,2.37
2018-02-24T05:01:42.414Z,2.37
2018-02-24T05:02:42.644Z,2.37
2018-02-24T05:03:42.491Z,2.37
2018-02-24T05:04:42.437Z,2.36
2018-02-24T05:05:42.433Z,2.36
2018-02-24T05:06:42.426Z,2.36
2018-02-24T05:07:42.453Z,2.37
2018-02-24T05:08:42.515Z,2.36
2018-02-24T05:09:42.281Z,2.36
2018-02-24T05:10:42.280Z,2.37
2018-02-24T05:11:42.336Z,2.36
2018-02-24T05:12:42.324Z,2.36
2018-02-24T05:13:42.327Z,2.37
2018-02-24T05:14:42.341Z,2.36
2018-02-24T05:15:42.333Z,2.36
2018-02-24T05:16:42.307Z,2.36
2018-02-24T05:17:42.558Z,2.36
2018-02-24T05:18:42.319Z,2.37
2018-02-24T05:19:42.311Z,2.36
2018-02-24T05:20:42.339Z,2.35
2018-02-24T05:21:42.322Z,2.35
2018-02-24T05:22:42.357Z,2.35
2018-02-24T05:23:42.325Z,2.35
2018-02-24T05:24:42.334Z,2.35
2018-02-24T05:25:42.349Z,2.35
2018-02-24T05:26:42.332Z,2.36
2018-02-24T05:27:42.347Z,2.35
2018-02-24T05:28:42.360Z,2.34
2018-02-24T05:29:42.338Z,2.34
2018-02-24T05:30:42.384Z,2.35
2018-02-24T05:31:42.655Z,2.34
2018-02-24T05:32:42.616Z,2.34
2018-02-24T05:33:42.358Z,2.33
2018-02-24T05:34:42.353Z,2.34
2018-02-24T05:35:42.346Z,2.33
2018-02-24T05:36:42.357Z,2.34
2018-02-24T05:37:42.392Z,2.33
2018-02-24T05:38:42.357Z,2.33
2018-02-24T05:39:42.406Z,2.34
2018-02-24T05:40:42.363Z,2.34
2018-02-24T05:41:42.366Z,2.34
2018-02-24T05:42:42.369Z,2.34
2018-02-24T05:43:42.381Z,2.34
2018-02-24T05:44:42.383Z,2.34
2018-02-24T05:45:42.394Z,2.34
2018-02-24T05:46:42.375Z,2.33
2018-02-24T05:47:42.376Z,2.35
2018-02-24T05:48:42.400Z,2.33
2018-02-24T05:49:42.373Z,2.32
2018-02-24T05:50:42.408Z,2.33
2018-02-24T05:51:42.422Z,2.32
2018-02-24T05:52:42.394Z,2.33
2018-02-24T05:53:42.421Z,2.33
2018-02-24T05:54:42.417Z,2.34
2018-02-24T05:55:42.411Z,2.34
2018-02-24T05:56:42.487Z,2.34
2018-02-24T05:57:42.412Z,2.34
2018-02-24T05:58:42.453Z,2.34
2018-02-24T05:59:42.472Z,2.34
2018-02-24T06:00:42.427Z,2.34
2018-02-24T06:01:42.613Z,2.33
2018-02-24T06:02:42.612Z,2.33
2018-02-24T06:03:42.604Z,2.33
2018-02-24T06:04:42.606Z,2.33
2018-02-24T06:05:42.605Z,2.33
2018-02-24T06:06:42.634Z,2.32
2018-02-24T06:07:42.632Z,2.32
2018-02-24T06:08:42.648Z,2.32
2018-02-24T06:09:42.660Z,2.32
2018-02-24T06:10:42.647Z,2.32
2018-02-24T06:11:42.645Z,2.32
2018-02-24T06:12:42.643Z,2.32
2018-02-24T06:13:42.656Z,2.32
2018-02-24T06:14:42.706Z,2.31
2018-02-24T06:15:42.648Z,2.32
2018-02-24T06:16:42.740Z,2.31
2018-02-24T06:17:42.708Z,2.32
2018-02-24T06:18:42.650Z,2.31
2018-02-24T06:19:42.696Z,2.31
2018-02-24T06:20:42.665Z,2.31
2018-02-24T06:21:42.527Z,2.31
2018-02-24T06:22:42.675Z,2.31
2018-02-24T06:23:42.676Z,2.31
2018-02-24T06:24:42.682Z,2.3
2018-02-24T06:25:42.682Z,2.3
2018-02-24T06:26:42.688Z,2.3
2018-02-24T06:27:42.733Z,2.31
2018-02-24T06:28:42.667Z,2.3
2018-02-24T06:29:42.536Z,2.3
2018-02-24T06:30:42.537Z,2.3
2018-02-24T06:31:42.703Z,2.3
2018-02-24T06:32:42.707Z,2.3
2018-02-24T06:33:42.698Z,2.3
2018-02-24T06:34:42.698Z,2.31
2018-02-24T06:35:42.738Z,2.31
2018-02-24T06:36:42.712Z,2.3
2018-02-24T06:37:42.557Z,2.3
2018-02-24T06:38:42.569Z,2.3
2018-02-24T06:39:42.743Z,2.3
2018-02-24T06:40:42.581Z,2.3
2018-02-24T06:41:42.605Z,2.29
2018-02-24T06:42:42.616Z,2.29
2018-02-24T06:43:42.599Z,2.29
2018-02-24T06:44:42.620Z,2.29
2018-02-24T06:45:42.658Z,2.29
2018-02-24T06:46:42.652Z,2.29
2018-02-24T06:47:42.623Z,2.29
2018-02-24T06:48:42.843Z,2.29
2018-02-24T06:49:42.654Z,2.29
2018-02-24T06:50:42.631Z,2.3
2018-02-24T06:51:42.639Z,2.29
2018-02-24T06:52:42.661Z,2.29
2018-02-24T06:53:42.641Z,2.29
2018-02-24T06:54:42.992Z,2.28
2018-02-24T06:55:42.805Z,2.28
2018-02-24T06:56:42.653Z,2.28
2018-02-24T06:57:42.654Z,2.28
2018-02-24T06:58:42.661Z,2.28
2018-02-24T06:59:42.668Z,2.28
2018-02-24T07:00:42.912Z,2.28
2018-02-24T07:01:42.664Z,2.29
2018-02-24T07:02:42.693Z,2.3
2018-02-24T07:03:42.694Z,2.29
2018-02-24T07:04:42.706Z,2.29
2018-02-24T07:05:42.688Z,2.28
2018-02-24T07:06:42.713Z,2.29
2018-02-24T07:07:42.680Z,2.28
2018-02-24T07:08:42.728Z,2.28
2018-02-24T07:09:42.710Z,2.27
2018-02-24T07:10:42.727Z,2.27
2018-02-24T07:11:42.697Z,2.28
2018-02-24T07:12:42.713Z,2.28
2018-02-24T07:13:43.007Z,2.27
2018-02-24T07:14:42.869Z,2.28
2018-02-24T07:15:42.868Z,2.28
2018-02-24T07:16:42.889Z,2.26
2018-02-24T07:17:42.875Z,2.27
2018-02-24T07:18:42.895Z,2.28
2018-02-24T07:19:42.952Z,2.27
2018-02-24T07:20:42.892Z,2.26
2018-02-24T07:21:42.907Z,2.26
2018-02-24T07:22:42.936Z,2.25
2018-02-24T07:23:42.904Z,2.26
2018-02-24T07:24:42.775Z,2.26
2018-02-24T07:25:42.752Z,2.26
2018-02-24T07:26:42.970Z,2.26
2018-02-24T07:27:42.920Z,2.27
2018-02-24T07:28:42.761Z,2.26
2018-02-24T07:29:42.922Z,2.26
2018-02-24T07:30:42.766Z,2.23
2018-02-24T07:31:42.782Z,2.24
2018-02-24T07:32:42.796Z,2.25
2018-02-24T07:33:42.829Z,2.27
2018-02-24T07:34:42.777Z,2.25
2018-02-24T07:35:42.808Z,2.27
2018-02-24T07:36:42.790Z,2.27
2018-02-24T07:37:42.858Z,2.27
2018-02-24T07:38:42.802Z,2.26
2018-02-24T07:39:42.799Z,2.25
2018-02-24T07:40:42.793Z,2.25
2018-02-24T07:41:42.799Z,2.24
2018-02-24T07:42:42.828Z,2.26
2018-02-24T07:43:42.790Z,2.25
2018-02-24T07:44:43.016Z,2.27
2018-02-24T07:45:42.844Z,2.24
2018-02-24T07:46:42.972Z,2.23
2018-02-24T07:47:42.966Z,2.24
2018-02-24T07:48:42.817Z,2.24
2018-02-24T07:49:42.818Z,2.23
2018-02-24T07:50:42.817Z,2.24
2018-02-24T07:51:42.835Z,2.24
2018-02-24T07:52:42.833Z,2.23
2018-02-24T07:53:42.839Z,2.22
2018-02-24T07:54:42.839Z,2.22
2018-02-24T07:55:43.101Z,2.22
2018-02-24T07:56:42.828Z,2.22
2018-02-24T07:57:42.842Z,2.23
2018-02-24T07:58:42.852Z,2.21
2018-02-24T07:59:42.863Z,2.23
2018-02-24T08:00:42.872Z,2.22
2018-02-24T08:01:42.856Z,2.22
2018-02-24T08:02:42.916Z,2.22
2018-02-24T08:03:42.864Z,2.27
2018-02-24T08:04:43.104Z,2.25
2018-02-24T08:05:42.909Z,2.22
2018-02-24T08:06:42.882Z,2.22
2018-02-24T08:07:42.900Z,2.22
2018-02-24T08:08:42.904Z,2.23
2018-02-24T08:09:42.900Z,2.25
2018-02-24T08:10:42.903Z,2.23
2018-02-24T08:11:42.915Z,2.22
2018-02-24T08:12:42.930Z,2.21
2018-02-24T08:13:42.930Z,2.21
2018-02-24T08:14:42.917Z,2.2
2018-02-24T08:15:42.947Z,2.22
2018-02-24T08:16:42.934Z,2.21
2018-02-24T08:17:43.084Z,2.23
2018-02-24T08:18:42.936Z,2.22
2018-02-24T08:19:42.948Z,2.21
2018-02-24T08:20:42.945Z,2.23
2018-02-24T08:21:42.945Z,2.21
2018-02-24T08:22:42.939Z,2.18
2018-02-24T08:23:42.959Z,2.2
2018-02-24T08:24:42.955Z,2.2
2018-02-24T08:25:43.097Z,2.2
2018-02-24T08:26:42.979Z,2.2
2018-02-24T08:27:43.171Z,2.2
2018-02-24T08:28:43.121Z,2.19
2018-02-24T08:29:43.120Z,2.17
2018-02-24T08:30:43.175Z,2.18
2018-02-24T08:31:43.120Z,2.18
2018-02-24T08:32:43.149Z,2.19
2018-02-24T08:33:43.167Z,2.19
2018-02-24T08:34:43.156Z,2.18
2018-02-24T08:35:43.149Z,2.17
2018-02-24T08:36:43.148Z,2.19
2018-02-24T08:37:43.246Z,2.21
2018-02-24T08:38:43.246Z,2.19
2018-02-24T08:39:43.255Z,2.2
2018-02-24T08:40:43.283Z,2.19
2018-02-24T08:41:43.149Z,2.2
2018-02-24T08:42:43.204Z,2.2
2018-02-24T08:43:43.002Z,2.19
2018-02-24T08:44:42.995Z,2.2
2018-02-24T08:45:43.044Z,2.21
2018-02-24T08:46:43.023Z,2.19
2018-02-24T08:47:43.014Z,2.17
2018-02-24T08:48:43.019Z,2.19
2018-02-24T08:49:43.196Z,2.2
2018-02-24T08:50:43.092Z,2.21
2018-02-24T08:51:43.130Z,2.22
2018-02-24T08:52:43.113Z,2.21
2018-02-24T08:53:43.052Z,2.2
2018-02-24T08:54:43.041Z,2.2
2018-02-24T08:55:43.039Z,2.2
2018-02-24T08:56:43.066Z,2.19
2018-02-24T08:57:43.042Z,2.19
2018-02-24T08:58:43.054Z,2.19
2018-02-24T08:59:43.074Z,2.2
2018-02-24T09:00:43.058Z,2.17
2018-02-24T09:01:43.086Z,2.18
2018-02-24T09:02:43.071Z,2.19
2018-02-24T09:03:43.060Z,2.19
2018-02-24T09:04:43.057Z,2.19
2018-02-24T09:05:43.048Z,2.19
2018-02-24T09:06:43.237Z,2.19
2018-02-24T09:07:43.064Z,2.2
2018-02-24T09:08:43.086Z,2.23
2018-02-24T09:09:43.056Z,2.2
2018-02-24T09:10:43.072Z,2.19
2018-02-24T09:11:43.121Z,2.19
2018-02-24T09:12:43.056Z,2.18
2018-02-24T09:13:43.059Z,2.19
2018-02-24T09:14:43.056Z,2.16
2018-02-24T09:15:43.165Z,2.18
2018-02-24T09:16:43.138Z,2.16
2018-02-24T09:17:43.731Z,2.16
2018-02-24T09:18:43.165Z,2.18
2018-02-24T09:19:43.313Z,2.19
2018-02-24T09:20:43.140Z,2.18
2018-02-24T09:21:43.093Z,2.18
2018-02-24T09:22:43.087Z,2.15
2018-02-24T09:23:43.072Z,2.17
2018-02-24T09:24:43.076Z,2.16
2018-02-24T09:25:43.101Z,2.14
2018-02-24T09:26:43.109Z,2.14
2018-02-24T09:27:43.098Z,2.13
2018-02-24T09:28:43.093Z,2.14
2018-02-24T09:29:43.153Z,2.15
2018-02-24T09:30:43.105Z,2.13
2018-02-24T09:31:43.124Z,2.13
2018-02-24T09:32:43.135Z,2.13
2018-02-24T09:33:43.173Z,2.13
2018-02-24T09:34:43.114Z,2.11
2018-02-24T09:35:43.128Z,2.12
2018-02-24T09:36:43.306Z,2.13
2018-02-24T09:37:43.316Z,2.12
2018-02-24T09:38:43.590Z,2.1
2018-02-24T09:39:43.315Z,2.11
2018-02-24T09:40:43.339Z,2.11
2018-02-24T09:41:43.293Z,2.12
2018-02-24T09:42:43.294Z,2.15
2018-02-24T09:43:43.365Z,2.14
2018-02-24T09:44:43.312Z,2.16
2018-02-24T09:45:43.314Z,2.17
2018-02-24T09:46:43.172Z,2.14
2018-02-24T09:47:43.312Z,2.14
2018-02-24T09:48:43.221Z,2.12
2018-02-24T09:49:43.326Z,2.14
2018-02-24T09:50:43.164Z,2.15
2018-02-24T09:51:43.331Z,2.13
2018-02-24T09:52:43.328Z,2.16
2018-02-24T09:53:43.160Z,2.15
2018-02-24T09:54:43.332Z,2.16
2018-02-24T09:55:43.403Z,2.15
2018-02-24T09:56:43.338Z,2.16
2018-02-24T09:57:43.346Z,2.17
2018-02-24T09:58:43.698Z,2.15
2018-02-24T09:59:43.341Z,2.15
2018-02-24T10:00:43.213Z,2.16
2018-02-24T10:01:43.354Z,2.14
2018-02-24T10:02:43.201Z,2.14
2018-02-24T10:03:43.200Z,2.15
2018-02-24T10:04:43.335Z,2.16
2018-02-24T10:05:43.349Z,2.17
2018-02-24T10:06:43.177Z,2.13
2018-02-24T10:07:43.181Z,2.16
2018-02-24T10:08:43.406Z,2.14
2018-02-24T10:09:43.188Z,2.15
2018-02-24T10:10:43.218Z,2.16
2018-02-24T10:11:43.202Z,2.13
2018-02-24T10:12:43.214Z,2.14
2018-02-24T10:13:43.200Z,2.12
2018-02-24T10:14:43.211Z,2.13
2018-02-24T10:15:43.245Z,2.17
2018-02-24T10:16:43.218Z,2.18
2018-02-24T10:17:43.241Z,2.2
2018-02-24T10:18:43.224Z,2.18
2018-02-24T10:19:43.246Z,2.19
2018-02-24T10:20:43.298Z,2.17
2018-02-24T10:21:43.246Z,2.17
2018-02-24T10:22:43.242Z,2.17
2018-02-24T10:23:43.258Z,2.19
2018-02-24T10:24:43.241Z,2.19
2018-02-24T10:25:43.241Z,2.22
2018-02-24T10:26:43.263Z,2.17
2018-02-24T10:27:43.261Z,2.18
2018-02-24T10:28:43.262Z,2.16
2018-02-24T10:29:43.257Z,2.19
2018-02-24T10:30:43.288Z,2.19
2018-02-24T10:31:43.287Z,2.21
2018-02-24T10:32:43.285Z,2.21
2018-02-24T10:33:43.277Z,2.2
2018-02-24T10:34:43.280Z,2.19
2018-02-24T10:35:43.272Z,2.21
2018-02-24T10:36:43.270Z,2.19
2018-02-24T10:37:43.308Z,2.19
2018-02-24T10:38:43.302Z,2.21
2018-02-24T10:39:43.290Z,2.26
2018-02-24T10:40:43.297Z,2.28
2018-02-24T10:41:43.322Z,2.25
2018-02-24T10:42:43.309Z,2.2
2018-02-24T10:43:43.307Z,2.19
2018-02-24T10:44:43.476Z,2.2
2018-02-24T10:45:43.314Z,2.2
2018-02-24T10:46:43.317Z,2.21
2018-02-24T10:47:43.479Z,2.22
2018-02-24T10:48:43.489Z,2.25
2018-02-24T10:49:43.502Z,2.22
2018-02-24T10:50:44.529Z,2.23
2018-02-24T10:51:43.370Z,2.25
2018-02-24T10:52:43.540Z,2.21
2018-02-24T10:53:43.344Z,2.22
2018-02-24T10:54:43.518Z,2.17
2018-02-24T10:55:43.358Z,2.16
2018-02-24T10:56:43.395Z,2.2
2018-02-24T10:57:43.605Z,2.19
2018-02-24T10:58:43.356Z,2.19
2018-02-24T10:59:43.527Z,2.17
2018-02-24T11:00:43.395Z,2.17
2018-02-24T11:01:43.380Z,2.18
2018-02-24T11:02:43.706Z,2.15
2018-02-24T11:03:43.536Z,2.15
2018-02-24T11:04:44.672Z,2.12
2018-02-24T11:05:43.465Z,2.12
2018-02-24T11:06:43.396Z,2.18
2018-02-24T11:07:43.402Z,2.2
2018-02-24T11:08:43.685Z,2.16
2018-02-24T11:09:43.563Z,2.15
2018-02-24T11:10:43.404Z,2.14
2018-02-24T11:11:43.590Z,2.14
2018-02-24T11:12:45.099Z,2.18
2018-02-24T11:13:43.439Z,2.18
2018-02-24T11:14:43.589Z,2.19
2018-02-24T11:15:43.456Z,2.2
2018-02-24T11:16:43.514Z,2.17
2018-02-24T11:17:43.762Z,2.19
2018-02-24T11:18:43.453Z,2.2
2018-02-24T11:19:43.880Z,2.19
2018-02-24T11:20:43.499Z,2.16
2018-02-24T11:21:43.480Z,2.16
2018-02-24T11:22:43.464Z,2.14
2018-02-24T11:23:43.479Z,2.2
2018-02-24T11:24:43.497Z,2.13
2018-02-24T11:25:43.460Z,2.14
2018-02-24T11:26:43.529Z,2.18
2018-02-24T11:27:43.682Z,2.19
2018-02-24T11:28:43.467Z,2.17
2018-02-24T11:29:43.493Z,2.18
2018-02-24T11:30:43.483Z,2.16
2018-02-24T11:31:43.481Z,2.16
2018-02-24T11:32:43.537Z,2.17
2018-02-24T11:33:43.539Z,2.12
2018-02-24T11:34:43.475Z,2.17
2018-02-24T11:35:43.502Z,2.18
2018-02-24T11:36:43.530Z,2.19
2018-02-24T11:37:43.501Z,2.21
2018-02-24T11:38:43.514Z,2.22
2018-02-24T11:39:43.519Z,2.21
2018-02-24T11:40:43.501Z,2.19
2018-02-24T11:41:43.513Z,2.16
2018-02-24T11:42:43.512Z,2.19
2018-02-24T11:43:43.509Z,2.17
2018-02-24T11:44:43.524Z,2.17
2018-02-24T11:45:43.528Z,2.18
2018-02-24T11:46:43.526Z,2.21
2018-02-24T11:47:43.604Z,2.24
2018-02-24T11:48:43.683Z,2.19
2018-02-24T11:49:43.518Z,2.19
2018-02-24T11:50:43.527Z,2.19
2018-02-24T11:51:43.531Z,2.19
2018-02-24T11:52:43.570Z,2.21
2018-02-24T11:53:43.543Z,2.22
2018-02-24T11:54:43.552Z,2.27
2018-02-24T11:55:43.555Z,2.25
2018-02-24T11:56:43.748Z,2.25
2018-02-24T11:57:43.602Z,2.31
2018-02-24T11:58:43.569Z,2.25
2018-02-24T11:59:43.569Z,2.25
2018-02-24T12:00:43.589Z,2.26
2018-02-24T12:01:43.738Z,2.25
2018-02-24T12:02:43.750Z,2.23
2018-02-24T12:03:43.727Z,2.23
2018-02-24T12:04:43.782Z,2.23
2018-02-24T12:05:43.578Z,2.24
2018-02-24T12:06:43.746Z,2.21
2018-02-24T12:07:43.729Z,2.21
2018-02-24T12:08:43.590Z,2.23
2018-02-24T12:09:43.781Z,2.25
2018-02-24T12:10:43.609Z,2.23
2018-02-24T12:11:43.580Z,2.25
2018-02-24T12:12:43.595Z,2.25
2018-02-24T12:13:43.874Z,2.26
2018-02-24T12:14:43.628Z,2.26
2018-02-24T12:15:43.759Z,2.28
2018-02-24T12:16:43.604Z,2.23
2018-02-24T12:17:43.738Z,2.25
2018-02-24T12:18:43.586Z,2.28
2018-02-24T12:19:43.754Z,2.28
2018-02-24T12:20:43.635Z,2.24
2018-02-24T12:21:43.595Z,2.27
2018-02-24T12:22:43.621Z,2.31
2018-02-24T12:23:43.601Z,2.28
2018-02-24T12:24:43.781Z,2.3
2018-02-24T12:25:43.798Z,2.31
2018-02-24T12:26:43.629Z,2.29
2018-02-24T12:27:43.619Z,2.3
2018-02-24T12:28:43.795Z,2.28
2018-02-24T12:29:43.644Z,2.23
2018-02-24T12:30:43.671Z,2.28
2018-02-24T12:31:43.639Z,2.29
2018-02-24T12:32:43.676Z,2.29
2018-02-24T12:33:43.663Z,2.27
2018-02-24T12:34:43.809Z,2.3
2018-02-24T12:35:43.858Z,2.29
2018-02-24T12:36:43.676Z,2.23
2018-02-24T12:37:43.691Z,2.22
2018-02-24T12:38:43.663Z,2.26
2018-02-24T12:39:43.777Z,2.27
2018-02-24T12:40:43.708Z,2.25
2018-02-24T12:41:43.870Z,2.28
2018-02-24T12:42:43.670Z,2.23
2018-02-24T12:43:43.683Z,2.28
2018-02-24T12:44:43.677Z,2.28
2018-02-24T12:45:44.062Z,2.29
2018-02-24T12:46:44.369Z,2.25
2018-02-24T12:47:43.700Z,2.29
2018-02-24T12:48:43.698Z,2.3
2018-02-24T12:49:43.690Z,2.24
2018-02-24T12:50:43.993Z,2.27
2018-02-24T12:51:43.720Z,2.26
2018-02-24T12:52:43.716Z,2.26
2018-02-24T12:53:43.722Z,2.26
2018-02-24T12:54:43.724Z,2.27
2018-02-24T12:55:44.269Z,2.3
2018-02-24T12:56:43.749Z,2.3
2018-02-24T12:57:43.931Z,2.34
2018-02-24T12:58:43.755Z,2.3
2018-02-24T12:59:43.777Z,2.33
2018-02-24T13:00:43.917Z,2.31
2018-02-24T13:01:43.768Z,2.35
2018-02-24T13:02:43.768Z,2.34
2018-02-24T13:03:43.752Z,2.35
2018-02-24T13:04:43.759Z,2.39
2018-02-24T13:05:43.751Z,2.35
2018-02-24T13:06:43.787Z,2.36
2018-02-24T13:07:43.776Z,2.32
2018-02-24T13:08:43.760Z,2.31
2018-02-24T13:09:43.779Z,2.31
2018-02-24T13:10:43.778Z,2.33
2018-02-24T13:11:43.810Z,2.37
2018-02-24T13:12:43.939Z,2.27
2018-02-24T13:13:43.943Z,2.3
2018-02-24T13:14:43.966Z,2.32
2018-02-24T13:15:43.821Z,2.31
2018-02-24T13:16:44.322Z,2.29
2018-02-24T13:17:43.978Z,2.32
2018-02-24T13:18:43.995Z,2.27
2018-02-24T13:19:43.829Z,2.28
2018-02-24T13:20:44.037Z,2.33
2018-02-24T13:21:43.918Z,2.33